Time;durP1;ratioP1;P1;durP2;ratioP2;P2;SDS_P1;SDS_P2;PMS_P1;PMS_P2;Temp;Humidity;BMP_temperature;BMP_pressure;BME280_temperature;BME280_humidity;BME280_pressure;Samples;Min_cycle;Max_cycle;Signal;HPM_P1;HPM_P2
2024/03/31 00:02:42;;;;;;;21.60;5.10;;;;;;;14.92;49.89;98524.25;217590;1256;138985;-72
2024/03/31 00:07:45;;;;;;;13.90;5.20;;;;;;;14.93;50.11;98523.27;217751;1256;139611;-71
2024/03/31 00:12:48;;;;;;;20.60;4.70;;;;;;;14.92;50.31;98521.78;217744;1257;140342;-74
2024/03/31 00:17:52;;;;;;;21.20;3.90;;;;;;;14.92;50.50;98527.14;217713;1257;141324;-73
2024/03/31 00:22:54;;;;;;;38.50;6.10;;;;;;;14.91;50.60;98521.05;217543;1257;236147;-73
2024/03/31 00:27:57;;;;;;;22.80;5.20;;;;;;;14.86;50.87;98528.14;217609;1256;139100;-72
2024/03/31 00:33:00;;;;;;;25.90;5.70;;;;;;;14.83;51.17;98518.69;217760;1257;139010;-73
2024/03/31 00:38:03;;;;;;;40.50;6.00;;;;;;;14.83;51.24;98517.41;217585;1257;139227;-73
2024/03/31 00:43:05;;;;;;;20.60;5.90;;;;;;;14.82;51.37;98515.33;217870;1257;140029;-72
2024/03/31 00:48:09;;;;;;;30.00;6.10;;;;;;;14.77;51.52;98510.95;217841;1259;139204;-73
2024/03/31 00:53:11;;;;;;;22.60;6.60;;;;;;;14.71;51.73;98505.23;218022;1259;139376;-73
2024/03/31 00:58:14;;;;;;;27.80;6.40;;;;;;;14.64;51.79;98505.80;217607;1257;140479;-73
2024/03/31 01:03:30;;;;;;;18.90;4.50;;;;;;;14.49;51.99;98513.50;218030;1257;139751;-71
2024/03/31 01:08:33;;;;;;;40.50;7.40;;;;;;;14.36;52.31;98505.40;218195;1257;140105;-71
2024/03/31 01:13:37;;;;;;;17.60;4.60;;;;;;;14.28;52.57;98510.92;217889;1256;139805;-72
2024/03/31 01:18:40;;;;;;;35.70;8.80;;;;;;;14.20;52.80;98509.48;218654;1257;139172;-72
2024/03/31 01:23:43;;;;;;;33.80;9.60;;;;;;;14.19;53.08;98506.70;218460;1255;150715;-71
2024/03/31 01:28:46;;;;;;;38.70;11.80;;;;;;;14.22;53.40;98508.76;217947;1259;139211;-72
2024/03/31 01:33:50;;;;;;;37.60;7.60;;;;;;;14.24;53.53;98510.19;219782;1257;140658;-72
2024/03/31 01:38:53;;;;;;;18.70;5.40;;;;;;;14.24;53.64;98503.16;218235;1257;139281;-72
2024/03/31 01:44:07;;;;;;;23.50;5.80;;;;;;;14.26;53.82;98508.87;219387;1256;139522;-73
2024/03/31 01:49:11;;;;;;;38.20;6.30;;;;;;;14.23;53.95;98507.67;218532;1256;140130;-73
2024/03/31 01:54:14;;;;;;;11.00;3.40;;;;;;;14.19;54.07;98505.89;217764;1256;139556;-72
2024/03/31 01:59:17;;;;;;;31.80;4.60;;;;;;;14.11;54.13;98507.70;217726;1257;232444;-72
2024/03/31 02:04:20;;;;;;;20.40;6.00;;;;;;;14.02;54.29;98507.03;217999;1259;139900;-72
2024/03/31 02:09:23;;;;;;;20.20;4.20;;;;;;;13.95;54.50;98505.83;218685;1257;139087;-73
2024/03/31 02:14:26;;;;;;;24.60;5.00;;;;;;;13.91;54.63;98499.71;217711;1257;140810;-73
2024/03/31 02:19:29;;;;;;;17.90;5.50;;;;;;;13.87;54.81;98496.77;217943;1260;139835;-73
2024/03/31 02:24:33;;;;;;;23.10;5.40;;;;;;;13.79;54.95;98488.21;217732;1259;139559;-73
2024/03/31 02:29:37;;;;;;;32.30;8.40;;;;;;;13.73;55.21;98485.36;217671;1259;139954;-73
2024/03/31 02:34:39;;;;;;;20.00;4.60;;;;;;;13.68;55.29;98484.92;217692;1258;141752;-72
2024/03/31 02:39:43;;;;;;;14.80;3.60;;;;;;;13.63;55.61;98485.08;217666;1257;140145;-72
2024/03/31 02:44:45;;;;;;;14.20;4.10;;;;;;;13.61;55.80;98484.73;217709;1256;139008;-71
2024/03/31 02:49:48;;;;;;;28.90;5.00;;;;;;;13.57;56.19;98481.24;217639;1257;139125;-73
2024/03/31 02:54:52;;;;;;;13.30;3.00;;;;;;;13.55;56.29;98474.95;217894;1256;140074;-72
2024/03/31 02:59:55;;;;;;;12.50;4.40;;;;;;;13.53;56.42;98472.98;218472;1257;139532;-73
2024/03/31 03:04:58;;;;;;;18.60;4.60;;;;;;;13.55;56.63;98471.62;219060;1259;139951;-72
2024/03/31 03:10:01;;;;;;;14.80;6.00;;;;;;;13.55;56.72;98463.65;218065;1259;139231;-71
2024/03/31 03:15:04;;;;;;;20.30;4.40;;;;;;;13.52;56.82;98460.78;217731;1257;138713;-71
2024/03/31 03:20:07;;;;;;;20.80;4.30;;;;;;;13.48;56.91;98458.56;217982;1257;139852;-70
2024/03/31 03:25:13;;;;;;;21.70;5.30;;;;;;;13.44;57.22;98460.77;220687;1257;141638;-72
2024/03/31 03:30:15;;;;;;;14.20;4.10;;;;;;;13.39;57.42;98466.56;219196;1257;139034;-71
2024/03/31 03:35:19;;;;;;;14.20;3.60;;;;;;;13.35;57.49;98469.44;218860;1259;139034;-72
2024/03/31 03:40:23;;;;;;;17.00;6.00;;;;;;;13.30;57.41;98467.50;217802;1260;139405;-72
2024/03/31 03:45:26;;;;;;;30.10;5.50;;;;;;;13.23;57.72;98462.10;219247;1259;138986;-72
2024/03/31 03:50:30;;;;;;;22.40;5.30;;;;;;;13.15;57.93;98459.83;217493;1258;139170;-73
2024/03/31 03:55:33;;;;;;;21.10;5.50;;;;;;;13.08;58.16;98453.24;217604;1259;139098;-69
2024/03/31 04:00:40;;;;;;;19.90;4.60;;;;;;;12.99;58.36;98451.45;218171;1259;139407;-69
2024/03/31 04:05:55;;;;;;;12.70;4.90;;;;;;;12.88;58.85;98447.69;217400;1258;139157;-70
2024/03/31 04:10:58;;;;;;;36.00;6.60;;;;;;;12.78;58.78;98445.96;217542;1256;140766;-70
2024/03/31 04:16:00;;;;;;;17.80;5.20;;;;;;;12.70;58.99;98446.98;217513;1259;148901;-70
2024/03/31 04:21:07;;;;;;;19.90;4.40;;;;;;;12.65;59.29;98447.13;217420;1258;139375;-71
2024/03/31 04:26:11;;;;;;;17.00;4.60;;;;;;;12.65;59.53;98452.59;217607;1260;234404;-72
2024/03/31 04:31:13;;;;;;;12.00;3.80;;;;;;;12.67;59.94;98450.38;217669;1260;139646;-71
2024/03/31 04:36:17;;;;;;;12.70;4.00;;;;;;;12.76;60.22;98448.39;217588;1260;139710;-72
2024/03/31 04:41:20;;;;;;;24.40;4.40;;;;;;;12.84;60.49;98444.93;217415;1262;139749;-72
2024/03/31 04:46:24;;;;;;;15.70;3.60;;;;;;;12.91;60.20;98441.77;217653;1260;139132;-74
2024/03/31 04:51:27;;;;;;;19.90;4.00;;;;;;;12.93;60.47;98440.26;217663;1257;139917;-75
2024/03/31 04:56:30;;;;;;;24.90;6.00;;;;;;;12.93;60.40;98438.02;220041;1257;140068;-70
2024/03/31 05:01:33;;;;;;;25.00;4.70;;;;;;;12.97;60.45;98438.73;217719;1260;297264;-70
2024/03/31 05:06:36;;;;;;;16.30;5.40;;;;;;;13.03;60.45;98437.28;218728;1260;139649;-71
2024/03/31 05:11:39;;;;;;;22.30;4.80;;;;;;;13.12;60.55;98434.70;217667;1260;138857;-68
2024/03/31 05:16:42;;;;;;;15.80;3.50;;;;;;;13.20;60.66;98437.08;217972;1257;140565;-70
2024/03/31 05:21:44;;;;;;;13.40;2.90;;;;;;;13.31;60.66;98435.27;218492;1257;139820;-70
2024/03/31 05:26:46;;;;;;;8.60;3.00;;;;;;;13.40;60.74;98431.86;217849;1260;139551;-71
2024/03/31 05:31:49;;;;;;;19.00;4.60;;;;;;;13.52;60.60;98428.28;217431;1259;139671;-71
2024/03/31 05:36:51;;;;;;;24.80;4.60;;;;;;;13.59;60.76;98425.90;217663;1257;139990;-71
2024/03/31 05:41:53;;;;;;;17.90;3.90;;;;;;;13.64;60.78;98425.91;217732;1260;139272;-70
2024/03/31 05:46:55;;;;;;;17.60;3.50;;;;;;;13.70;60.89;98433.71;217448;1260;139544;-71
2024/03/31 05:51:59;;;;;;;16.90;4.00;;;;;;;13.77;60.67;98432.27;217676;1260;139420;-69
2024/03/31 05:57:01;;;;;;;13.80;4.30;;;;;;;13.87;60.66;98429.10;217928;1259;141046;-71
2024/03/31 06:02:05;;;;;;;23.70;3.70;;;;;;;13.94;60.69;98432.11;217848;1260;139680;-71
2024/03/31 06:07:07;;;;;;;22.80;5.80;;;;;;;14.03;60.69;98423.80;218248;1258;139832;-69
2024/03/31 06:12:10;;;;;;;12.00;4.00;;;;;;;14.10;60.67;98423.20;217612;1260;138968;-70
2024/03/31 06:17:13;;;;;;;12.80;5.00;;;;;;;14.20;60.76;98425.16;217780;1257;140641;-72
2024/03/31 06:22:16;;;;;;;8.90;4.30;;;;;;;14.31;60.73;98422.97;217735;1256;139719;-70
2024/03/31 06:27:18;;;;;;;11.80;4.30;;;;;;;14.42;60.59;98423.08;217478;1257;139065;-68
2024/03/31 06:32:21;;;;;;;16.60;4.30;;;;;;;14.56;60.63;98424.02;217916;1257;139035;-71
2024/03/31 06:37:23;;;;;;;16.10;4.80;;;;;;;14.71;60.47;98419.90;218179;1256;140080;-68
2024/03/31 06:42:26;;;;;;;11.30;3.80;;;;;;;14.88;60.32;98418.61;218367;1259;142367;-71
2024/03/31 06:47:28;;;;;;;13.10;5.30;;;;;;;15.08;60.06;98419.80;218014;1260;140053;-71
2024/03/31 06:52:31;;;;;;;14.70;3.70;;;;;;;15.38;60.15;98420.80;217830;1257;138934;-75
2024/03/31 06:57:36;;;;;;;9.50;3.00;;;;;;;15.80;60.04;98416.21;217956;1258;139741;-73
2024/03/31 07:02:39;;;;;;;17.70;4.10;;;;;;;16.33;59.74;98406.57;217519;1257;138614;-74
2024/03/31 07:07:43;;;;;;;8.60;3.00;;;;;;;16.86;59.19;98404.77;218380;1257;139646;-75
2024/03/31 07:12:46;;;;;;;11.60;2.60;;;;;;;17.60;58.55;98401.11;218983;1260;139445;-75
2024/03/31 07:17:50;;;;;;;22.50;4.10;;;;;;;18.54;57.47;98397.04;217535;1260;140201;-74
2024/03/31 07:23:02;;;;;;;11.70;3.70;;;;;;;19.25;56.52;98395.52;218210;1261;140052;-73
2024/03/31 07:28:15;;;;;;;10.40;3.00;;;;;;;19.50;55.25;98401.33;217752;1257;139503;-74
2024/03/31 07:33:20;;;;;;;14.90;3.20;;;;;;;19.80;54.69;98401.44;217977;1260;139721;-73
2024/03/31 07:38:34;;;;;;;15.20;3.80;;;;;;;20.28;54.04;98400.00;217401;1260;139437;-78
2024/03/31 07:43:49;;;;;;;16.30;4.30;;;;;;;20.59;53.51;98394.50;217765;1260;139162;-76
2024/03/31 07:49:01;;;;;;;11.90;3.30;;;;;;;20.71;52.62;98389.59;218232;1257;139781;-76
2024/03/31 07:54:14;;;;;;;22.30;3.70;;;;;;;20.79;51.77;98392.42;217641;1259;140238;-74
2024/03/31 07:59:26;;;;;;;8.00;2.30;;;;;;;20.85;51.22;98382.48;217692;1262;139511;-79
2024/03/31 08:04:30;;;;;;;15.50;3.50;;;;;;;20.75;50.23;98385.07;217707;1260;142417;-77
2024/03/31 08:09:40;;;;;;;15.90;3.90;;;;;;;20.66;49.90;98382.14;218133;1257;139603;-73
2024/03/31 08:14:48;;;;;;;7.40;2.60;;;;;;;20.65;49.70;98379.29;217567;1257;141849;-74
2024/03/31 08:19:55;;;;;;;11.00;3.30;;;;;;;20.84;49.62;98371.21;217595;1261;140514;-76
2024/03/31 08:25:06;;;;;;;14.20;3.20;;;;;;;21.18;49.53;98366.88;218591;1260;140024;-76
2024/03/31 08:30:12;;;;;;;14.00;3.20;;;;;;;21.59;49.16;98360.38;217417;1261;138911;-77
2024/03/31 08:35:38;;;;;;;23.90;4.20;;;;;;;22.11;48.60;98356.37;217259;1262;143951;-78
2024/03/31 08:41:01;;;;;;;;;;;;;;;;;;;;;
2024/03/31 08:46:09;;;;;;;13.20;4.00;;;;;;;22.35;46.04;98368.45;218256;1259;139666;-73
2024/03/31 08:51:18;;;;;;;7.60;2.70;;;;;;;22.52;45.39;98352.95;217699;1259;140244;-75
2024/03/31 08:56:28;;;;;;;17.60;3.20;;;;;;;22.83;45.07;98354.02;217786;1258;138857;-73
2024/03/31 09:01:42;;;;;;;21.50;3.40;;;;;;;22.95;44.15;98344.95;217521;1257;139730;-75
2024/03/31 09:07:05;;;;;;;23.90;4.50;;;;;;;22.81;43.17;98335.18;218724;1257;139571;-77
2024/03/31 09:12:11;;;;;;;11.40;2.90;;;;;;;22.47;42.83;98335.41;217393;1258;139819;-76
2024/03/31 09:17:20;;;;;;;23.70;3.60;;;;;;;22.29;42.69;98340.04;217869;1262;138649;-77
2024/03/31 09:22:35;;;;;;;10.80;3.50;;;;;;;22.21;42.75;98326.73;217199;1259;140750;-76
2024/03/31 09:27:46;;;;;;;10.70;3.00;;;;;;;22.24;42.99;98324.73;217141;1263;140200;-74
2024/03/31 09:32:50;;;;;;;18.10;3.40;;;;;;;22.61;43.29;98320.90;218237;1259;140137;-76
2024/03/31 09:37:55;;;;;;;15.10;3.00;;;;;;;22.88;42.86;98326.30;217882;1259;140678;-73
2024/03/31 09:43:02;;;;;;;17.70;2.70;;;;;;;23.08;42.73;98328.18;217796;1263;142608;-73
2024/03/31 09:48:16;;;;;;;15.60;3.30;;;;;;;23.36;42.89;98329.70;217663;1260;141019;-74
2024/03/31 09:53:38;;;;;;;6.60;2.40;;;;;;;23.52;42.14;98320.30;217773;1259;139758;-74
2024/03/31 09:58:51;;;;;;;17.20;3.50;;;;;;;23.85;41.98;98326.24;217530;1262;139658;-73
2024/03/31 10:04:08;;;;;;;16.40;4.10;;;;;;;24.17;41.62;98323.40;217130;1263;143730;-75
2024/03/31 10:09:11;;;;;;;18.60;4.60;;;;;;;24.40;41.33;98320.94;217815;1260;140416;-74
2024/03/31 10:14:17;;;;;;;19.30;4.70;;;;;;;24.57;40.93;98315.95;217242;1259;139913;-70
2024/03/31 10:19:23;;;;;;;26.80;5.00;;;;;;;24.49;39.50;98316.27;217508;1262;138503;-76
2024/03/31 10:24:36;;;;;;;27.50;4.50;;;;;;;24.35;39.90;98314.08;218738;1259;139429;-73
2024/03/31 10:29:48;;;;;;;18.40;4.70;;;;;;;24.22;39.77;98319.08;218276;1260;141593;-75
2024/03/31 10:34:51;;;;;;;26.90;5.30;;;;;;;24.08;39.99;98325.88;217371;1259;139530;-77
2024/03/31 10:39:54;;;;;;;22.60;5.10;;;;;;;23.85;39.70;98325.55;217640;1260;139790;-75
2024/03/31 10:44:57;;;;;;;33.40;4.40;;;;;;;23.59;39.62;98318.90;217285;1259;141331;-76
2024/03/31 10:50:09;;;;;;;11.70;3.00;;;;;;;23.37;39.53;98316.60;217724;1259;139173;-75
2024/03/31 10:55:28;;;;;;;18.80;4.00;;;;;;;23.27;39.78;98308.82;217807;1257;139313;-75
2024/03/31 11:00:56;;;;;;;25.30;5.40;;;;;;;23.19;40.07;98309.20;218133;1257;143546;-74
2024/03/31 11:06:03;;;;;;;28.30;4.90;;;;;;;23.33;40.41;98301.88;217239;1262;139058;-76
2024/03/31 11:11:11;;;;;;;25.30;4.90;;;;;;;23.69;40.32;98294.27;217221;1259;142598;-74
2024/03/31 11:16:20;;;;;;;18.60;3.40;;;;;;;24.05;40.32;98287.06;217816;1258;140826;-76
2024/03/31 11:21:34;;;;;;;34.20;5.00;;;;;;;24.57;40.15;98279.68;217648;1259;140084;-77
2024/03/31 11:26:39;;;;;;;35.60;5.10;;;;;;;24.92;39.72;98262.21;217722;1259;140123;-77
2024/03/31 11:31:45;;;;;;;30.70;6.00;;;;;;;25.05;39.30;98265.10;217394;1262;139641;-76
2024/03/31 11:36:51;;;;;;;27.20;6.00;;;;;;;25.12;38.43;98256.55;217834;1258;141087;-75
2024/03/31 11:42:04;;;;;;;24.70;5.90;;;;;;;25.01;38.45;98245.71;217459;1262;141021;-76
2024/03/31 11:47:12;;;;;;;26.50;6.00;;;;;;;25.05;38.31;98236.90;217650;1257;140229;-76
2024/03/31 11:52:17;;;;;;;31.70;5.20;;;;;;;25.04;37.74;98238.14;217310;1257;139436;-75
2024/03/31 11:57:20;;;;;;;40.90;7.80;;;;;;;24.99;37.48;98232.30;217574;1262;140890;-76
2024/03/31 12:02:26;;;;;;;38.30;7.50;;;;;;;25.09;37.99;98232.59;217574;1259;139838;-74
2024/03/31 12:07:30;;;;;;;47.90;7.50;;;;;;;25.14;37.61;98219.58;217544;1259;139703;-73
2024/03/31 12:12:33;;;;;;;72.10;10.00;;;;;;;25.20;36.81;98223.32;217598;1259;140054;-72
2024/03/31 12:17:35;;;;;;;59.90;9.30;;;;;;;25.13;36.22;98221.43;217846;1257;139164;-72
2024/03/31 12:22:42;;;;;;;47.20;8.60;;;;;;;25.12;36.00;98216.27;217487;1256;140345;-73
2024/03/31 12:27:44;;;;;;;42.20;8.20;;;;;;;25.10;35.83;98211.41;217276;1257;140618;-72
2024/03/31 12:32:47;;;;;;;37.90;8.60;;;;;;;25.08;35.87;98206.63;218224;1257;141267;-73
2024/03/31 12:37:52;;;;;;;37.10;8.60;;;;;;;24.99;35.46;98205.42;217405;1262;139250;-74
2024/03/31 12:42:55;;;;;;;41.50;8.10;;;;;;;25.04;35.85;98201.92;217567;1257;138841;-73
2024/03/31 12:48:01;;;;;;;42.30;7.40;;;;;;;25.04;35.88;98210.50;218439;1258;141108;-73
2024/03/31 12:53:08;;;;;;;41.50;8.30;;;;;;;24.99;35.42;98221.23;218629;1257;139144;-73
2024/03/31 12:58:12;;;;;;;38.50;8.30;;;;;;;24.87;35.47;98221.39;217589;1257;139956;-71
2024/03/31 13:03:19;;;;;;;44.70;8.20;;;;;;;24.82;35.64;98218.28;218769;1257;139375;-72
2024/03/31 13:08:21;;;;;;;46.70;7.40;;;;;;;24.82;35.89;98213.60;217180;1257;139662;-73
2024/03/31 13:13:24;;;;;;;27.20;6.20;;;;;;;24.92;36.04;98214.23;217445;1261;140183;-73
2024/03/31 13:18:26;;;;;;;41.40;7.80;;;;;;;24.84;35.86;98218.00;217533;1256;139089;-73
2024/03/31 13:23:29;;;;;;;50.70;9.40;;;;;;;24.70;35.94;98217.02;218813;1259;139676;-72
2024/03/31 13:28:31;;;;;;;67.80;8.60;;;;;;;24.66;36.17;98218.17;217805;1259;138561;-73
2024/03/31 13:33:34;;;;;;;48.30;8.30;;;;;;;24.64;36.17;98221.04;217972;1260;139375;-71
2024/03/31 13:38:36;;;;;;;74.90;10.40;;;;;;;24.57;36.27;98224.34;217763;1259;141156;-75
2024/03/31 13:43:39;;;;;;;47.10;10.10;;;;;;;24.53;36.20;98223.55;217699;1261;140158;-74
2024/03/31 13:48:43;;;;;;;46.20;9.70;;;;;;;24.37;36.06;98229.23;217878;1257;139548;-74
2024/03/31 13:53:46;;;;;;;55.40;8.80;;;;;;;24.23;36.08;98225.14;217436;1257;139212;-74
2024/03/31 13:58:48;;;;;;;44.80;9.50;;;;;;;24.11;36.22;98222.73;217677;1257;139186;-73
2024/03/31 14:03:50;;;;;;;45.60;8.40;;;;;;;23.96;36.27;98223.89;217558;1257;139040;-73
2024/03/31 14:08:53;;;;;;;69.10;10.80;;;;;;;23.86;36.45;98222.86;217878;1259;139048;-71
2024/03/31 14:13:58;;;;;;;51.70;9.30;;;;;;;23.73;36.23;98224.09;218269;1257;139568;-73
2024/03/31 14:19:01;;;;;;;46.70;8.50;;;;;;;23.69;36.26;98225.24;217587;1256;140134;-72
2024/03/31 14:24:03;;;;;;;43.80;8.70;;;;;;;23.60;36.47;98216.81;217276;1261;139531;-73
2024/03/31 14:29:05;;;;;;;46.00;8.90;;;;;;;23.55;36.82;98221.75;217611;1256;139330;-72
2024/03/31 14:34:08;;;;;;;41.00;9.00;;;;;;;23.34;36.37;98223.85;217444;1257;140633;-75
2024/03/31 14:39:11;;;;;;;46.80;8.90;;;;;;;23.02;36.87;98230.13;217807;1257;142157;-73
2024/03/31 14:44:13;;;;;;;45.80;7.80;;;;;;;22.84;37.16;98232.41;217245;1261;139101;-73
2024/03/31 14:49:16;;;;;;;49.60;8.20;;;;;;;22.68;37.15;98230.60;217597;1261;139781;-72
2024/03/31 14:54:19;;;;;;;44.30;7.70;;;;;;;22.54;37.67;98231.05;217648;1262;140932;-70
2024/03/31 14:59:21;;;;;;;20.20;3.80;;;;;;;22.42;37.86;98228.09;218156;1256;139133;-72
2024/03/31 15:04:23;;;;;;;46.10;9.00;;;;;;;22.34;37.82;98221.91;217915;1257;139356;-72
2024/03/31 15:09:25;;;;;;;39.10;7.60;;;;;;;22.24;38.28;98222.11;217828;1257;138899;-72
2024/03/31 15:14:27;;;;;;;67.10;9.10;;;;;;;22.12;38.28;98226.53;217396;1261;140397;-71
2024/03/31 15:19:29;;;;;;;59.80;9.20;;;;;;;21.95;38.27;98220.63;217938;1257;140093;-71
2024/03/31 15:24:31;;;;;;;43.60;8.30;;;;;;;21.80;38.32;98217.73;217651;1261;140101;-72
2024/03/31 15:29:34;;;;;;;43.50;8.50;;;;;;;21.68;38.44;98212.34;217121;1257;138912;-73
2024/03/31 15:34:37;;;;;;;40.40;7.30;;;;;;;21.59;38.69;98218.36;218758;1258;139455;-73
2024/03/31 15:39:40;;;;;;;42.80;7.50;;;;;;;21.50;38.99;98216.26;218333;1259;139931;-73
2024/03/31 15:44:42;;;;;;;50.60;7.50;;;;;;;21.44;39.08;98215.44;217880;1257;140219;-73
2024/03/31 15:49:44;;;;;;;35.80;7.40;;;;;;;21.36;39.39;98215.77;217887;1260;140925;-71
2024/03/31 15:54:47;;;;;;;42.20;8.20;;;;;;;21.23;39.50;98213.50;217350;1262;139103;-76
2024/03/31 15:59:49;;;;;;;45.40;8.10;;;;;;;21.11;39.73;98212.73;217656;1260;139579;-74
2024/03/31 16:04:51;;;;;;;56.30;7.30;;;;;;;20.97;39.86;98215.88;217388;1261;139806;-74
2024/03/31 16:09:53;;;;;;;33.90;7.90;;;;;;;20.87;40.08;98219.95;217329;1262;140678;-73
2024/03/31 16:14:55;;;;;;;41.90;7.70;;;;;;;20.74;40.21;98227.45;217754;1256;139812;-74
2024/03/31 16:19:57;;;;;;;36.20;6.60;;;;;;;20.61;40.70;98226.77;217685;1257;140277;-72
2024/03/31 16:25:00;;;;;;;35.60;7.60;;;;;;;20.45;40.71;98224.02;219593;1258;140112;-73
2024/03/31 16:30:04;;;;;;;25.90;6.10;;;;;;;20.33;40.85;98220.04;217332;1262;139293;-72
2024/03/31 16:35:06;;;;;;;43.70;7.50;;;;;;;20.21;41.11;98213.20;217501;1260;140637;-73
2024/03/31 16:40:08;;;;;;;48.70;7.70;;;;;;;20.07;41.30;98218.58;217435;1256;140183;-72
2024/03/31 16:45:11;;;;;;;34.00;6.40;;;;;;;19.93;41.58;98214.63;218595;1259;140644;-73
2024/03/31 16:50:13;;;;;;;57.60;9.40;;;;;;;19.78;41.71;98202.68;217235;1262;140411;-72
2024/03/31 16:55:16;;;;;;;42.10;8.50;;;;;;;19.64;41.95;98199.45;218060;1259;138891;-72
2024/03/31 17:00:18;;;;;;;49.80;8.50;;;;;;;19.50;42.26;98196.30;217458;1259;345579;-72
2024/03/31 17:05:21;;;;;;;36.30;6.40;;;;;;;19.35;42.41;98196.42;217588;1258;139530;-71
2024/03/31 17:10:26;;;;;;;34.00;6.90;;;;;;;19.21;42.48;98203.39;217348;1259;139700;-71
2024/03/31 17:15:28;;;;;;;39.70;6.80;;;;;;;19.06;42.78;98208.08;217692;1258;139096;-72
2024/03/31 17:20:31;;;;;;;37.30;7.40;;;;;;;18.88;42.96;98204.52;217384;1260;139555;-72
2024/03/31 17:25:33;;;;;;;45.40;7.00;;;;;;;18.75;43.33;98200.30;218567;1259;139904;-73
2024/03/31 17:30:38;;;;;;;33.90;7.90;;;;;;;18.65;43.50;98198.19;217563;1257;140075;-71
2024/03/31 17:35:41;;;;;;;34.70;7.30;;;;;;;18.56;43.74;98200.04;217251;1261;138938;-73
2024/03/31 17:40:55;;;;;;;43.70;6.50;;;;;;;18.48;43.89;98208.05;217920;1257;139772;-72
2024/03/31 17:46:10;;;;;;;28.00;6.40;;;;;;;18.39;44.08;98220.79;217562;1262;139693;-71
2024/03/31 17:51:16;;;;;;;33.30;6.70;;;;;;;18.31;44.29;98224.00;217995;1256;140602;-70
2024/03/31 17:56:19;;;;;;;;;;;;;;;18.23;44.47;98227.65;218087;1256;138952;-72
2024/03/31 18:01:22;;;;;;;43.50;6.60;;;;;;;18.11;44.50;98231.46;218721;1262;125781;-73
2024/03/31 18:06:25;;;;;;;43.90;7.40;;;;;;;18.04;44.65;98232.15;218345;1258;138787;-73
2024/03/31 18:11:28;;;;;;;40.80;7.30;;;;;;;17.93;44.94;98234.67;218061;1262;139638;-72
2024/03/31 18:16:30;;;;;;;27.40;5.70;;;;;;;17.88;45.13;98236.80;218054;1261;149920;-73
2024/03/31 18:21:33;;;;;;;37.60;7.60;;;;;;;17.85;45.32;98239.21;217433;1259;142244;-73
2024/03/31 18:26:35;;;;;;;60.40;8.50;;;;;;;17.80;45.53;98236.07;217662;1257;139947;-74
2024/03/31 18:31:38;;;;;;;44.90;6.60;;;;;;;17.74;45.45;98237.81;219773;1259;139682;-73
2024/03/31 18:36:40;;;;;;;43.00;8.60;;;;;;;17.72;45.50;98236.25;217854;1259;151496;-72
2024/03/31 18:41:42;;;;;;;28.70;6.10;;;;;;;17.68;45.75;98237.71;217537;1257;139135;-71
2024/03/31 18:46:45;;;;;;;40.80;7.50;;;;;;;17.60;46.04;98231.05;217415;1259;140234;-73
2024/03/31 18:51:48;;;;;;;38.70;6.60;;;;;;;17.52;46.07;98234.08;217349;1257;140595;-72
2024/03/31 18:56:52;;;;;;;35.10;5.40;;;;;;;17.43;46.21;98240.29;217500;1256;139537;-72
2024/03/31 19:01:54;;;;;;;42.60;7.10;;;;;;;17.32;46.37;98242.40;218131;1259;140839;-71
2024/03/31 19:07:00;;;;;;;42.10;6.30;;;;;;;17.21;46.49;98239.75;219252;1261;139083;-72
2024/03/31 19:12:03;;;;;;;27.10;5.90;;;;;;;17.09;46.75;98243.69;218436;1257;140150;-72
2024/03/31 19:17:05;;;;;;;29.50;5.90;;;;;;;17.01;47.06;98237.59;218059;1257;139194;-72
2024/03/31 19:22:08;;;;;;;26.70;5.60;;;;;;;16.95;47.16;98239.44;217942;1262;209772;-72
2024/03/31 19:27:10;;;;;;;25.60;6.50;;;;;;;16.89;47.39;98243.95;217427;1259;139174;-73
2024/03/31 19:32:13;;;;;;;52.90;8.00;;;;;;;16.86;47.47;98242.02;217199;1260;140118;-72
2024/03/31 19:37:16;;;;;;;33.80;6.60;;;;;;;16.81;47.74;98247.08;217730;1257;140275;-72
2024/03/31 19:42:21;;;;;;;36.30;7.50;;;;;;;16.73;47.95;98245.64;217668;1262;139620;-70
2024/03/31 19:47:26;;;;;;;27.20;6.30;;;;;;;16.64;48.24;98242.27;217611;1262;138994;-72
2024/03/31 19:52:28;;;;;;;36.10;6.50;;;;;;;16.57;48.35;98241.80;218149;1260;140669;-71
2024/03/31 19:57:30;;;;;;;65.60;8.60;;;;;;;16.51;48.42;98242.83;217536;1260;140883;-71
2024/03/31 20:02:33;;;;;;;60.80;9.00;;;;;;;16.44;48.71;98244.45;217555;1262;139334;-73
2024/03/31 20:07:36;;;;;;;44.20;8.30;;;;;;;16.36;48.88;98240.03;217464;1262;139297;-73
2024/03/31 20:12:39;;;;;;;35.20;7.50;;;;;;;16.31;49.00;98243.98;218063;1257;139274;-70
2024/03/31 20:17:42;;;;;;;24.10;6.20;;;;;;;16.27;49.07;98247.69;217383;1261;139543;-75
2024/03/31 20:22:46;;;;;;;29.40;5.70;;;;;;;16.24;49.29;98252.01;217863;1262;139175;-72
2024/03/31 20:27:49;;;;;;;25.10;7.00;;;;;;;16.20;49.30;98249.64;217683;1258;139152;-72
2024/03/31 20:32:52;;;;;;;35.70;6.80;;;;;;;16.14;49.45;98249.63;217768;1262;141305;-73
2024/03/31 20:37:55;;;;;;;46.30;9.00;;;;;;;16.11;49.59;98254.12;217472;1260;140243;-73
2024/03/31 20:42:58;;;;;;;25.50;5.20;;;;;;;16.08;49.65;98249.23;217986;1258;138869;-72
2024/03/31 20:48:05;;;;;;;24.80;6.00;;;;;;;16.04;49.82;98249.62;217925;1257;139413;-72
2024/03/31 20:53:08;;;;;;;35.30;6.20;;;;;;;16.01;49.92;98251.14;218210;1260;139286;-71
2024/03/31 20:58:10;;;;;;;41.90;7.60;;;;;;;16.01;50.01;98252.43;217371;1262;139633;-70
2024/03/31 21:03:12;;;;;;;30.20;7.70;;;;;;;15.98;50.23;98255.83;217242;1260;140071;-71
2024/03/31 21:08:15;;;;;;;40.10;8.60;;;;;;;15.95;50.19;98255.52;217328;1258;140059;-72
2024/03/31 21:13:17;;;;;;;53.90;8.30;;;;;;;15.90;50.31;98256.98;217480;1262;140546;-72
2024/03/31 21:18:19;;;;;;;34.70;7.30;;;;;;;15.86;50.40;98254.77;217227;1262;140058;-71
2024/03/31 21:23:22;;;;;;;18.60;5.30;;;;;;;15.83;50.40;98256.02;217349;1261;140045;-73
2024/03/31 21:28:25;;;;;;;38.40;6.20;;;;;;;15.81;50.37;98258.66;217302;1257;140467;-73
2024/03/31 21:33:28;;;;;;;34.30;6.60;;;;;;;15.77;50.56;98253.47;218146;1261;140258;-71
2024/03/31 21:38:31;;;;;;;35.30;6.70;;;;;;;15.70;50.64;98249.08;217857;1257;139248;-71
2024/03/31 21:43:37;;;;;;;32.10;7.70;;;;;;;15.67;50.66;98252.90;217841;1262;140334;-70
2024/03/31 21:48:40;;;;;;;33.70;7.90;;;;;;;15.63;50.76;98250.16;217650;1262;140573;-72
2024/03/31 21:53:43;;;;;;;27.40;6.00;;;;;;;15.55;50.72;98249.98;217305;1260;140323;-72
2024/03/31 21:58:45;;;;;;;30.30;6.30;;;;;;;15.50;50.83;98247.40;217746;1260;139809;-72
2024/03/31 22:03:49;;;;;;;42.50;6.10;;;;;;;15.44;50.99;98240.88;217501;1262;139716;-71
2024/03/31 22:08:52;;;;;;;25.60;5.90;;;;;;;15.39;51.09;98241.42;217992;1256;139884;-70
2024/03/31 22:13:54;;;;;;;22.70;6.30;;;;;;;15.34;51.23;98238.88;217373;1261;139671;-70
2024/03/31 22:18:57;;;;;;;37.00;7.00;;;;;;;15.27;51.38;98236.42;218383;1257;139979;-73
2024/03/31 22:24:00;;;;;;;37.20;7.60;;;;;;;15.15;51.51;98237.75;217953;1262;138815;-71
2024/03/31 22:29:02;;;;;;;37.90;7.80;;;;;;;14.98;51.62;98243.35;217755;1262;139293;-73
2024/03/31 22:34:05;;;;;;;34.40;7.80;;;;;;;14.82;51.78;98239.17;217774;1257;140135;-72
2024/03/31 22:39:07;;;;;;;40.20;7.30;;;;;;;14.64;52.13;98236.73;217255;1258;140802;-72
2024/03/31 22:44:09;;;;;;;37.20;8.10;;;;;;;14.46;52.39;98232.50;217566;1260;140186;-73
2024/03/31 22:49:12;;;;;;;31.70;7.10;;;;;;;14.31;52.77;98228.80;217623;1261;139256;-71
2024/03/31 22:54:16;;;;;;;35.90;7.30;;;;;;;14.20;53.08;98224.80;217469;1259;141039;-71
2024/03/31 22:59:18;;;;;;;48.40;7.40;;;;;;;14.04;53.49;98227.33;217496;1261;140031;-71
2024/03/31 23:04:21;;;;;;;38.30;7.60;;;;;;;13.87;53.90;98223.96;217362;1262;138968;-71
2024/03/31 23:09:24;;;;;;;48.20;7.60;;;;;;;13.71;53.85;98222.14;217450;1261;139098;-72